createdAt,value
2022-09-30T00:00:56.325Z,100.00
2022-09-30T00:03:24.189Z,100.00
2022-09-30T00:06:07.657Z,100.00
2022-09-30T00:08:36.274Z,100.00
2022-09-30T00:11:05.854Z,100.00
2022-09-30T00:13:34.813Z,100.00
2022-09-30T00:16:02.434Z,100.00
2022-09-30T00:18:29.775Z,100.00
2022-09-30T00:20:56.578Z,100.00
2022-09-30T00:23:23.952Z,100.00
2022-09-30T00:25:50.655Z,100.00
2022-09-30T00:28:17.472Z,100.00
2022-09-30T00:30:43.993Z,100.00
2022-09-30T00:33:10.569Z,100.00
2022-09-30T00:35:37.941Z,100.00
2022-09-30T00:38:04.700Z,100.00
2022-09-30T00:40:31.771Z,100.00
2022-09-30T00:43:00.456Z,100.00
2022-09-30T00:45:29.295Z,100.00
2022-09-30T00:48:14.528Z,100.00
2022-09-30T00:50:47.184Z,100.00
2022-09-30T00:53:20.145Z,100.00
2022-09-30T00:56:05.018Z,100.00
2022-09-30T00:58:37.181Z,100.00
2022-09-30T01:01:04.590Z,100.00
2022-09-30T01:03:36.698Z,100.00
2022-09-30T01:06:03.424Z,100.00
2022-09-30T01:08:33.500Z,100.00
2022-09-30T01:11:03.409Z,100.00
2022-09-30T01:13:35.024Z,100.00
2022-09-30T01:16:07.829Z,100.00
2022-09-30T01:18:47.581Z,100.00
2022-09-30T01:21:46.728Z,100.00
2022-09-30T01:24:30.697Z,100.00
2022-09-30T01:27:15.918Z,100.00
2022-09-30T01:30:21.776Z,100.00
2022-09-30T01:33:07.809Z,100.00
2022-09-30T01:35:51.163Z,100.00
2022-09-30T01:38:31.065Z,100.00
2022-09-30T01:41:09.189Z,100.00
2022-09-30T01:44:13.300Z,100.00
2022-09-30T01:46:59.468Z,100.00
2022-09-30T01:49:38.875Z,100.00
2022-09-30T01:52:15.460Z,100.00
2022-09-30T01:55:06.260Z,100.00
2022-09-30T01:57:51.148Z,100.00
2022-09-30T02:00:18.063Z,100.00
2022-09-30T02:02:56.802Z,100.00
2022-09-30T02:05:50.852Z,100.00
2022-09-30T02:08:30.093Z,100.00
2022-09-30T02:11:27.747Z,100.00
2022-09-30T02:14:02.299Z,100.00
2022-09-30T02:16:39.916Z,100.00
2022-09-30T02:19:20.462Z,100.00
2022-09-30T02:21:58.457Z,100.00
2022-09-30T02:24:28.399Z,100.00
2022-09-30T02:26:58.214Z,100.00
2022-09-30T02:29:30.424Z,100.00
2022-09-30T02:32:03.300Z,100.00
2022-09-30T02:34:37.863Z,100.00
2022-09-30T02:37:19.346Z,100.00
2022-09-30T02:40:10.755Z,100.00
2022-09-30T02:42:39.032Z,100.00
2022-09-30T02:45:10.248Z,100.00
2022-09-30T02:48:28.760Z,100.00
2022-09-30T02:51:23.817Z,100.00
2022-09-30T02:54:17.897Z,100.00
2022-09-30T02:56:54.811Z,100.00
2022-09-30T02:59:23.599Z,100.00
2022-09-30T03:01:50.380Z,100.00
2022-09-30T03:04:23.083Z,100.00
2022-09-30T03:06:49.692Z,100.00
2022-09-30T03:09:16.339Z,100.00
2022-09-30T03:11:42.959Z,100.00
2022-09-30T03:14:38.606Z,100.00
2022-09-30T03:17:30.203Z,100.00
2022-09-30T03:20:27.706Z,100.00
2022-09-30T03:23:20.180Z,100.00
2022-09-30T03:26:10.518Z,100.00
2022-09-30T03:28:52.001Z,100.00
2022-09-30T03:31:24.324Z,100.00
2022-09-30T03:34:33.256Z,100.00
2022-09-30T03:37:17.022Z,100.00
2022-09-30T03:40:06.011Z,100.00
2022-09-30T03:42:47.800Z,100.00
2022-09-30T03:45:21.015Z,100.00
2022-09-30T03:47:52.036Z,100.00
2022-09-30T03:50:21.781Z,100.00
2022-09-30T03:52:49.761Z,100.00
2022-09-30T03:55:17.318Z,100.00
2022-09-30T03:57:44.703Z,100.00
2022-09-30T04:00:13.055Z,100.00
2022-09-30T04:02:39.643Z,100.00
2022-09-30T04:05:07.069Z,100.00
2022-09-30T04:07:34.056Z,100.00
2022-09-30T04:10:00.827Z,100.00
2022-09-30T04:12:27.410Z,100.00
2022-09-30T04:14:54.004Z,100.00
2022-09-30T04:17:20.684Z,100.00
2022-09-30T04:19:47.398Z,100.00
2022-09-30T04:22:13.972Z,100.00
2022-09-30T04:24:40.608Z,100.00
2022-09-30T04:27:07.176Z,100.00
2022-09-30T04:29:33.664Z,100.00
2022-09-30T04:32:00.372Z,100.00
2022-09-30T04:34:26.957Z,100.00
2022-09-30T04:36:53.784Z,100.00
2022-09-30T04:39:20.414Z,100.00
2022-09-30T04:41:47.120Z,100.00
2022-09-30T04:44:13.743Z,100.00
2022-09-30T04:46:40.593Z,100.00
2022-09-30T04:49:09.315Z,100.00
2022-09-30T04:51:36.763Z,100.00
2022-09-30T04:54:03.465Z,100.00
2022-09-30T04:56:30.093Z,100.00
2022-09-30T04:58:56.714Z,100.00
2022-09-30T05:01:23.421Z,100.00
2022-09-30T05:03:50.689Z,100.00
2022-09-30T05:06:17.490Z,100.00
2022-09-30T05:08:46.018Z,100.00
2022-09-30T05:11:18.764Z,100.00
2022-09-30T05:13:46.459Z,100.00
2022-09-30T05:16:14.193Z,100.00
2022-09-30T05:18:42.694Z,100.00
2022-09-30T05:21:10.216Z,100.00
2022-09-30T05:23:37.005Z,100.00
2022-09-30T05:26:05.768Z,100.00
2022-09-30T05:28:35.241Z,100.00
2022-09-30T05:31:06.204Z,100.00
2022-09-30T05:33:33.321Z,100.00
2022-09-30T05:36:02.284Z,100.00
2022-09-30T05:38:29.293Z,100.00
2022-09-30T05:40:55.815Z,100.00
2022-09-30T05:43:22.425Z,100.00
2022-09-30T05:45:56.604Z,100.00
2022-09-30T05:48:24.178Z,100.00
2022-09-30T05:50:58.431Z,100.00
2022-09-30T05:53:25.271Z,100.00
2022-09-30T05:55:52.139Z,100.00
2022-09-30T05:58:20.487Z,100.00
2022-09-30T06:00:48.689Z,100.00
2022-09-30T06:03:16.764Z,100.00
2022-09-30T06:05:45.314Z,100.00
2022-09-30T06:08:12.936Z,100.00
2022-09-30T06:10:43.901Z,100.00
2022-09-30T06:13:10.813Z,100.00
2022-09-30T06:15:39.665Z,100.00
2022-09-30T06:18:07.051Z,100.00
2022-09-30T06:20:33.777Z,100.00
2022-09-30T06:23:00.768Z,100.00
2022-09-30T06:25:28.901Z,100.00
2022-09-30T06:27:55.988Z,100.00
2022-09-30T06:30:22.797Z,100.00
2022-09-30T06:32:49.416Z,100.00
2022-09-30T06:35:16.788Z,100.00
2022-09-30T06:37:44.756Z,100.00
2022-09-30T06:40:11.504Z,100.00
2022-09-30T06:42:38.298Z,100.00
2022-09-30T06:45:05.519Z,100.00
2022-09-30T06:47:33.414Z,100.00
2022-09-30T06:50:00.221Z,100.00
2022-09-30T06:52:27.211Z,100.00
2022-09-30T06:54:56.731Z,100.00
2022-09-30T06:57:26.747Z,100.00
2022-09-30T06:59:54.464Z,100.00
2022-09-30T07:02:21.856Z,100.00
2022-09-30T07:04:48.442Z,100.00
2022-09-30T07:07:15.196Z,100.00
2022-09-30T07:09:43.217Z,100.00
2022-09-30T07:12:09.947Z,100.00
2022-09-30T07:14:36.986Z,100.00
2022-09-30T07:17:04.584Z,100.00
2022-09-30T07:19:34.151Z,100.00
2022-09-30T07:22:21.528Z,100.00
2022-09-30T07:24:48.269Z,100.00
2022-09-30T07:27:14.818Z,100.00
2022-09-30T07:30:07.085Z,100.00
2022-09-30T07:32:28.299Z,100.00
2022-09-30T07:34:54.897Z,100.00
2022-09-30T07:37:21.642Z,100.00
2022-09-30T07:39:48.869Z,100.00
2022-09-30T07:42:21.652Z,100.00
2022-09-30T07:44:52.122Z,100.00
2022-09-30T07:47:19.994Z,100.00
2022-09-30T07:49:46.839Z,100.00
2022-09-30T07:52:13.429Z,100.00
2022-09-30T07:54:45.321Z,100.00
2022-09-30T07:57:14.749Z,100.00
2022-09-30T07:59:42.023Z,100.00
2022-09-30T08:02:15.562Z,100.00
2022-09-30T08:04:44.197Z,100.00
2022-09-30T08:07:12.957Z,100.00
2022-09-30T08:09:39.597Z,100.00
2022-09-30T08:12:06.247Z,100.00
2022-09-30T08:14:33.212Z,100.00
2022-09-30T08:17:00.638Z,100.00
2022-09-30T08:19:29.442Z,100.00
2022-09-30T08:21:57.128Z,100.00
2022-09-30T08:24:25.165Z,100.00
2022-09-30T08:26:52.718Z,100.00
2022-09-30T08:29:35.746Z,100.00
2022-09-30T08:32:06.863Z,100.00
2022-09-30T08:34:35.663Z,100.00
2022-09-30T08:37:07.855Z,100.00
2022-09-30T08:39:39.393Z,100.00
2022-09-30T08:42:32.783Z,100.00
2022-09-30T08:45:43.536Z,100.00
2022-09-30T08:48:37.537Z,100.00
2022-09-30T08:51:33.323Z,100.00
2022-09-30T08:54:05.468Z,100.00
2022-09-30T08:56:33.908Z,100.00
2022-09-30T08:59:40.713Z,99.94
2022-09-30T09:02:27.651Z,99.61
2022-09-30T09:04:59.297Z,98.41
2022-09-30T09:07:37.607Z,97.23
2022-09-30T09:10:15.703Z,95.66
2022-09-30T09:13:06.292Z,93.84
2022-09-30T09:15:50.832Z,91.24
2022-09-30T09:18:26.286Z,92.40
2022-09-30T09:20:58.286Z,91.43
2022-09-30T09:23:26.104Z,91.36
2022-09-30T09:25:56.010Z,89.86
2022-09-30T09:28:41.857Z,88.97
2022-09-30T09:31:17.202Z,88.60
2022-09-30T09:33:44.093Z,89.05
2022-09-30T09:36:33.076Z,88.91
2022-09-30T09:39:27.404Z,89.79
2022-09-30T09:42:07.493Z,90.35
2022-09-30T09:44:57.282Z,87.75
2022-09-30T09:47:23.858Z,86.60
2022-09-30T09:49:57.701Z,86.70
2022-09-30T09:52:44.451Z,86.91
2022-09-30T09:55:13.116Z,87.18
2022-09-30T09:57:40.276Z,86.46
2022-09-30T10:00:29.702Z,86.61
2022-09-30T10:03:01.853Z,85.70
2022-09-30T10:05:30.214Z,84.79
2022-09-30T10:08:16.953Z,81.85
2022-09-30T10:10:49.753Z,79.28
2022-09-30T10:13:24.872Z,79.10
2022-09-30T10:15:56.990Z,79.52
2022-09-30T10:18:32.233Z,78.08
2022-09-30T10:21:02.503Z,78.92
2022-09-30T10:23:36.918Z,74.76
2022-09-30T10:26:15.344Z,76.77
2022-09-30T10:28:51.777Z,77.06
2022-09-30T10:31:31.803Z,77.93
2022-09-30T10:34:31.570Z,73.02
2022-09-30T10:37:01.950Z,73.82
2022-09-30T10:39:37.596Z,72.78
2022-09-30T10:42:11.526Z,73.29
2022-09-30T10:44:44.478Z,72.72
2022-09-30T10:47:16.885Z,73.90
2022-09-30T10:49:51.328Z,74.33
2022-09-30T10:52:24.253Z,74.63
2022-09-30T10:54:53.964Z,73.25
2022-09-30T10:57:25.388Z,71.78
2022-09-30T10:59:58.926Z,69.78
2022-09-30T11:02:54.045Z,71.49
2022-09-30T11:05:31.427Z,68.85
2022-09-30T11:08:04.685Z,70.12
2022-09-30T11:10:40.132Z,68.14
2022-09-30T11:13:18.272Z,65.75
2022-09-30T11:16:03.251Z,65.96
2022-09-30T11:18:47.674Z,67.92
2022-09-30T11:21:25.889Z,68.29
2022-09-30T11:24:13.986Z,67.55
2022-09-30T11:26:58.632Z,67.77
2022-09-30T11:29:43.825Z,66.41
2022-09-30T11:32:28.161Z,66.33
2022-09-30T11:35:18.950Z,66.79
2022-09-30T11:38:07.314Z,67.22
2022-09-30T11:41:01.472Z,64.88
2022-09-30T11:44:05.648Z,62.20
2022-09-30T11:46:59.434Z,63.75
2022-09-30T11:49:53.972Z,64.88
2022-09-30T11:52:42.644Z,62.29
2022-09-30T11:55:27.963Z,59.02
2022-09-30T11:58:40.953Z,59.55
2022-09-30T12:01:16.268Z,57.69
2022-09-30T12:03:49.092Z,59.73
2022-09-30T12:06:28.805Z,58.40
2022-09-30T12:09:02.705Z,60.60
2022-09-30T12:11:47.235Z,60.97
2022-09-30T12:14:26.396Z,59.74
2022-09-30T12:16:56.728Z,57.89
2022-09-30T12:19:43.922Z,57.02
2022-09-30T12:22:28.524Z,59.51
2022-09-30T12:24:55.120Z,57.07
2022-09-30T12:27:27.770Z,57.82
2022-09-30T12:30:20.665Z,58.53
2022-09-30T12:33:17.930Z,58.62
2022-09-30T12:36:05.429Z,57.74
2022-09-30T12:39:10.564Z,57.32
2022-09-30T12:42:03.969Z,55.18
2022-09-30T12:45:16.939Z,58.00
2022-09-30T12:47:54.753Z,55.50
2022-09-30T12:50:25.871Z,55.56
2022-09-30T12:52:52.626Z,57.25
2022-09-30T12:55:29.111Z,57.43
2022-09-30T12:57:56.895Z,58.50
2022-09-30T13:00:26.602Z,56.31
2022-09-30T13:03:17.734Z,56.27
2022-09-30T13:05:51.856Z,57.07
2022-09-30T13:08:22.768Z,57.00
2022-09-30T13:10:59.849Z,54.40
2022-09-30T13:13:33.764Z,55.81
2022-09-30T13:16:06.488Z,55.08
2022-09-30T13:18:33.143Z,54.55
2022-09-30T13:21:06.652Z,56.38
2022-09-30T13:23:53.716Z,56.30
2022-09-30T13:26:32.662Z,56.02
2022-09-30T13:29:02.642Z,56.80
2022-09-30T13:31:52.995Z,57.47
2022-09-30T13:34:22.255Z,57.55
2022-09-30T13:36:51.749Z,56.67
2022-09-30T13:39:18.181Z,56.78
2022-09-30T13:41:50.394Z,58.28
2022-09-30T13:44:22.876Z,58.35
2022-09-30T13:46:54.540Z,58.64
2022-09-30T13:49:46.744Z,57.28
2022-09-30T13:52:22.962Z,57.04
2022-09-30T13:54:52.259Z,57.54
2022-09-30T13:57:26.142Z,54.87
2022-09-30T14:00:20.161Z,54.35
2022-09-30T14:03:06.221Z,54.14
2022-09-30T14:05:42.017Z,54.10
2022-09-30T14:08:31.201Z,54.51
2022-09-30T14:11:06.637Z,53.50
2022-09-30T14:14:08.246Z,52.31
2022-09-30T14:17:11.122Z,51.88
2022-09-30T14:19:58.302Z,53.39
2022-09-30T14:22:30.162Z,53.01
2022-09-30T14:24:57.800Z,53.11
2022-09-30T14:27:35.777Z,52.50
2022-09-30T14:30:11.244Z,53.07
2022-09-30T14:32:52.996Z,53.32
2022-09-30T14:35:19.545Z,53.30
2022-09-30T14:37:51.147Z,53.25
2022-09-30T14:40:27.618Z,53.18
2022-09-30T14:42:59.831Z,52.25
2022-09-30T14:45:33.001Z,52.98
2022-09-30T14:48:07.990Z,53.42
2022-09-30T14:50:51.296Z,52.50
2022-09-30T14:53:30.337Z,53.10
2022-09-30T14:55:58.071Z,54.35
2022-09-30T14:58:29.234Z,54.44
2022-09-30T15:01:03.663Z,55.36
2022-09-30T15:03:32.820Z,55.73
2022-09-30T15:05:59.651Z,55.56
2022-09-30T15:08:26.693Z,56.06
2022-09-30T15:10:55.873Z,55.23
2022-09-30T15:13:25.280Z,54.99
2022-09-30T15:15:51.882Z,55.82
2022-09-30T15:18:25.178Z,55.91
2022-09-30T15:20:57.358Z,55.75
2022-09-30T15:23:31.154Z,55.87
2022-09-30T15:25:59.009Z,56.27
2022-09-30T15:28:26.110Z,55.91
2022-09-30T15:30:56.855Z,56.29
2022-09-30T15:33:27.641Z,56.27
2022-09-30T15:36:03.341Z,56.08
2022-09-30T15:38:31.779Z,55.47
2022-09-30T15:41:10.003Z,56.10
2022-09-30T15:43:39.737Z,56.07
2022-09-30T15:46:31.071Z,56.20
2022-09-30T15:49:04.082Z,55.84
2022-09-30T15:51:43.433Z,56.57
2022-09-30T15:54:16.082Z,56.30
2022-09-30T15:56:43.526Z,56.65
2022-09-30T15:59:14.733Z,56.93
2022-09-30T16:01:49.944Z,56.69
2022-09-30T16:04:16.583Z,57.23
2022-09-30T16:06:52.931Z,58.24
2022-09-30T16:09:35.369Z,58.39
2022-09-30T16:12:14.075Z,58.82
2022-09-30T16:14:48.830Z,58.66
2022-09-30T16:17:19.507Z,59.11
2022-09-30T16:19:57.996Z,59.01
2022-09-30T16:22:54.897Z,58.34
2022-09-30T16:25:30.594Z,58.24
2022-09-30T16:28:13.565Z,57.89
2022-09-30T16:30:48.640Z,58.17
2022-09-30T16:33:16.845Z,58.37
2022-09-30T16:35:44.640Z,58.32
2022-09-30T16:38:15.003Z,58.63
2022-09-30T16:40:41.801Z,59.02
2022-09-30T16:43:11.717Z,59.05
2022-09-30T16:45:39.976Z,59.09
2022-09-30T16:48:15.311Z,59.04
2022-09-30T16:50:45.405Z,59.07
2022-09-30T16:53:11.901Z,58.65
2022-09-30T16:55:38.561Z,59.40
2022-09-30T16:58:05.535Z,59.85
2022-09-30T17:00:32.714Z,59.85
2022-09-30T17:02:59.456Z,59.87
2022-09-30T17:05:27.596Z,60.01
2022-09-30T17:07:59.247Z,60.40
2022-09-30T17:10:29.166Z,61.17
2022-09-30T17:12:58.694Z,61.59
2022-09-30T17:15:25.199Z,62.16
2022-09-30T17:17:53.028Z,62.62
2022-09-30T17:20:20.672Z,62.97
2022-09-30T17:22:47.411Z,63.82
2022-09-30T17:25:17.480Z,64.20
2022-09-30T17:27:48.994Z,65.18
2022-09-30T17:30:16.102Z,65.69
2022-09-30T17:32:42.704Z,66.05
2022-09-30T17:35:09.431Z,66.34
2022-09-30T17:37:38.530Z,66.87
2022-09-30T17:40:26.460Z,67.21
2022-09-30T17:43:08.577Z,67.83
2022-09-30T17:45:35.793Z,68.25
2022-09-30T17:48:02.619Z,67.88
2022-09-30T17:50:29.317Z,68.65
2022-09-30T17:52:56.310Z,68.80
2022-09-30T17:55:22.813Z,69.05
2022-09-30T17:57:50.748Z,70.24
2022-09-30T18:00:17.413Z,70.52
2022-09-30T18:02:44.734Z,70.68
2022-09-30T18:05:11.780Z,71.14
2022-09-30T18:07:38.716Z,71.03
2022-09-30T18:10:05.918Z,71.06
2022-09-30T18:12:34.395Z,71.59
2022-09-30T18:15:01.081Z,72.03
2022-09-30T18:17:28.218Z,72.33
2022-09-30T18:19:54.761Z,73.06
2022-09-30T18:22:21.271Z,73.15
2022-09-30T18:25:10.850Z,73.49
2022-09-30T18:27:37.459Z,74.10
2022-09-30T18:30:05.892Z,74.26
2022-09-30T18:32:32.868Z,74.21
2022-09-30T18:34:59.427Z,75.34
2022-09-30T18:37:28.827Z,75.51
2022-09-30T18:39:55.431Z,75.01
2022-09-30T18:42:21.924Z,75.74
2022-09-30T18:44:48.848Z,75.83
2022-09-30T18:47:17.455Z,76.10
2022-09-30T18:49:44.351Z,76.48
2022-09-30T18:52:10.935Z,76.17
2022-09-30T18:54:37.595Z,76.58
2022-09-30T18:57:04.582Z,76.97
2022-09-30T18:59:31.301Z,76.83
2022-09-30T19:01:59.619Z,77.32
2022-09-30T19:04:26.319Z,77.48
2022-09-30T19:06:52.927Z,77.37
2022-09-30T19:09:19.867Z,77.03
2022-09-30T19:11:47.940Z,77.47
2022-09-30T19:14:15.507Z,77.30
2022-09-30T19:16:43.485Z,77.25
2022-09-30T19:19:10.707Z,78.13
2022-09-30T19:21:40.436Z,77.97
2022-09-30T19:24:09.106Z,78.04
2022-09-30T19:26:37.633Z,78.04
2022-09-30T19:29:05.885Z,78.34
2022-09-30T19:31:33.972Z,78.57
2022-09-30T19:34:01.980Z,78.36
2022-09-30T19:36:31.497Z,79.10
2022-09-30T19:39:11.393Z,79.03
2022-09-30T19:41:38.888Z,79.54
2022-09-30T19:44:05.486Z,79.82
2022-09-30T19:46:32.128Z,79.35
2022-09-30T19:48:58.940Z,79.53
2022-09-30T19:51:28.092Z,79.59
2022-09-30T19:54:05.198Z,79.73
2022-09-30T19:56:33.887Z,80.14
2022-09-30T19:59:00.777Z,79.99
2022-09-30T20:01:28.741Z,80.71
2022-09-30T20:04:00.149Z,80.98
2022-09-30T20:06:28.255Z,80.48
2022-09-30T20:09:00.330Z,81.17
2022-09-30T20:11:29.710Z,80.57
2022-09-30T20:14:16.429Z,81.34
2022-09-30T20:16:43.935Z,81.52
2022-09-30T20:19:11.770Z,81.55
2022-09-30T20:21:38.714Z,81.73
2022-09-30T20:24:05.742Z,82.07
2022-09-30T20:26:34.260Z,81.70
2022-09-30T20:29:01.324Z,81.23
2022-09-30T20:31:28.726Z,81.81
2022-09-30T20:33:59.103Z,82.12
2022-09-30T20:36:27.036Z,82.13
2022-09-30T20:38:59.093Z,83.25
2022-09-30T20:41:31.075Z,82.34
2022-09-30T20:43:58.348Z,83.36
2022-09-30T20:46:26.552Z,82.85
2022-09-30T20:48:53.061Z,83.40
2022-09-30T20:51:20.448Z,83.17
2022-09-30T20:53:51.468Z,83.64
2022-09-30T20:56:20.825Z,83.84
2022-09-30T20:58:48.884Z,83.91
2022-09-30T21:01:20.891Z,84.33
2022-09-30T21:03:50.398Z,84.33
2022-09-30T21:06:20.570Z,84.31
2022-09-30T21:08:47.709Z,84.57
2022-09-30T21:11:14.738Z,84.85
2022-09-30T21:13:43.340Z,85.52
2022-09-30T21:16:12.038Z,85.02
2022-09-30T21:18:38.812Z,85.25
2022-09-30T21:21:05.802Z,85.78
2022-09-30T21:23:33.748Z,85.11
2022-09-30T21:26:08.724Z,85.83
2022-09-30T21:28:36.150Z,85.85
2022-09-30T21:31:10.567Z,86.10
2022-09-30T21:33:37.155Z,86.20
2022-09-30T21:36:06.338Z,86.51
2022-09-30T21:38:34.159Z,86.19
2022-09-30T21:41:04.787Z,86.51
2022-09-30T21:43:33.509Z,87.51
2022-09-30T21:46:02.155Z,87.35
2022-09-30T21:48:30.535Z,87.92
2022-09-30T21:50:57.490Z,87.34
2022-09-30T21:53:27.357Z,88.04
2022-09-30T21:55:58.745Z,87.91
2022-09-30T21:58:26.499Z,87.87
2022-09-30T22:00:56.987Z,88.14
2022-09-30T22:03:23.788Z,88.19
2022-09-30T22:05:52.296Z,88.37
2022-09-30T22:08:19.235Z,88.51
2022-09-30T22:10:45.837Z,88.30
2022-09-30T22:13:12.821Z,88.97
2022-09-30T22:15:39.450Z,88.92
2022-09-30T22:18:10.375Z,88.40
2022-09-30T22:20:38.644Z,89.14
2022-09-30T22:23:05.215Z,88.95
2022-09-30T22:25:32.583Z,89.18
2022-09-30T22:27:59.383Z,89.06
2022-09-30T22:30:28.829Z,89.57
2022-09-30T22:33:14.048Z,89.40
2022-09-30T22:35:59.567Z,89.79
2022-09-30T22:38:26.200Z,89.74
2022-09-30T22:40:55.769Z,89.50
2022-09-30T22:43:24.461Z,89.44
2022-09-30T22:46:05.461Z,89.34
2022-09-30T22:48:32.435Z,89.97
2022-09-30T22:50:59.644Z,89.31
2022-09-30T22:53:27.468Z,89.61
2022-09-30T22:55:54.813Z,89.88
2022-09-30T22:58:26.218Z,89.29
2022-09-30T23:00:57.561Z,89.85
2022-09-30T23:03:28.063Z,89.30
2022-09-30T23:06:02.183Z,89.80
2022-09-30T23:08:31.282Z,89.53
2022-09-30T23:10:57.823Z,89.72
2022-09-30T23:13:24.400Z,89.96
2022-09-30T23:15:57.945Z,90.23
2022-09-30T23:18:24.445Z,90.47
2022-09-30T23:20:57.923Z,90.11
2022-09-30T23:23:24.673Z,90.15
2022-09-30T23:26:25.107Z,89.93
2022-09-30T23:28:56.525Z,89.70
2022-09-30T23:31:23.550Z,90.19
2022-09-30T23:33:55.775Z,90.18
2022-09-30T23:36:26.917Z,89.67
2022-09-30T23:38:53.758Z,89.96
2022-09-30T23:41:21.354Z,89.48
2022-09-30T23:43:48.691Z,89.70
2022-09-30T23:46:17.043Z,89.79
2022-09-30T23:48:46.974Z,89.40
2022-09-30T23:51:14.058Z,89.62
2022-09-30T23:53:42.385Z,89.63
2022-09-30T23:56:16.967Z,89.80
2022-09-30T23:58:44.689Z,89.07
